Time;durP1;ratioP1;P1;durP2;ratioP2;P2;SDS_P1;SDS_P2;PMS_P1;PMS_P2;Temp;Humidity;BMP_temperature;BMP_pressure;BME280_temperature;BME280_humidity;BME280_pressure;Samples;Min_cycle;Max_cycle;Signal;HPM_P1;HPM_P2
2023/11/25 00:00:55;;;;;;;38.30;18.48;;;1.40;99.90;;;;;;5028816;28;20045;-77
2023/11/25 00:03:22;;;;;;;35.85;17.63;;;1.40;99.90;;;;;;5031202;28;20077;-76
2023/11/25 00:05:49;;;;;;;43.03;17.02;;;1.30;99.90;;;;;;5027120;28;20116;-76
2023/11/25 00:08:16;;;;;;;39.10;17.98;;;1.30;99.90;;;;;;5031356;28;20289;-77
2023/11/25 00:10:44;;;;;;;37.45;17.88;;;1.40;99.90;;;;;;5016443;28;20047;-77
2023/11/25 00:13:11;;;;;;;42.40;17.73;;;1.30;99.90;;;;;;5031394;28;20049;-76
2023/11/25 00:15:38;;;;;;;36.10;19.13;;;1.30;99.90;;;;;;5027915;28;20490;-76
2023/11/25 00:18:06;;;;;;;40.45;18.35;;;1.40;99.90;;;;;;5034939;28;20042;-77
2023/11/25 00:20:35;;;;;;;36.40;18.55;;;1.30;99.90;;;;;;5032376;28;20037;-77
2023/11/25 00:23:03;;;;;;;36.17;17.60;;;1.30;99.90;;;;;;5028344;28;20049;-77
2023/11/25 00:25:30;;;;;;;36.95;16.17;;;1.30;99.90;;;;;;5037438;28;20696;-77
2023/11/25 00:27:57;;;;;;;41.67;16.50;;;1.20;99.90;;;;;;5031758;28;20782;-77
2023/11/25 00:30:24;;;;;;;42.55;19.00;;;1.20;99.90;;;;;;5032602;28;20037;-77
2023/11/25 00:32:51;;;;;;;39.58;19.35;;;1.20;99.90;;;;;;5021710;28;20139;-78
2023/11/25 00:35:18;;;;;;;81.32;24.48;;;1.20;99.90;;;;;;5035260;28;20102;-77
2023/11/25 00:37:45;;;;;;;38.17;18.80;;;1.20;99.90;;;;;;5024867;28;20025;-77
2023/11/25 00:40:19;;;;;;;51.70;22.77;;;1.20;99.90;;;;;;5027948;28;20046;-77
2023/11/25 00:42:47;;;;;;;40.45;18.73;;;1.20;99.90;;;;;;5012694;28;20124;-77
2023/11/25 00:45:14;;;;;;;38.20;17.70;;;1.20;99.90;;;;;;5036169;28;20043;-77
2023/11/25 00:47:41;;;;;;;43.20;17.65;;;1.20;99.90;;;;;;5026709;28;20144;-76
2023/11/25 00:50:10;;;;;;;55.17;17.98;;;1.20;99.90;;;;;;5029916;28;20141;-76
2023/11/25 00:52:38;;;;;;;39.13;18.45;;;1.30;99.90;;;;;;5011613;28;20451;-77
2023/11/25 00:55:06;;;;;;;44.28;17.60;;;1.20;99.90;;;;;;5023063;28;20060;-77
2023/11/25 00:57:33;;;;;;;43.60;18.33;;;1.30;99.90;;;;;;5025686;28;20038;-77
2023/11/25 01:00:00;;;;;;;38.45;18.17;;;1.30;99.90;;;;;;5030237;28;20830;-76
2023/11/25 01:02:27;;;;;;;35.83;19.02;;;1.30;99.90;;;;;;5012737;28;20036;-77
2023/11/25 01:04:55;;;;;;;30.05;16.95;;;1.20;99.90;;;;;;5003077;28;20061;-77
2023/11/25 01:07:22;;;;;;;35.38;17.52;;;1.20;99.90;;;;;;5028362;28;20037;-78
2023/11/25 01:09:49;;;;;;;48.25;20.98;;;1.20;99.90;;;;;;5023745;28;20680;-77
2023/11/25 01:12:16;;;;;;;35.97;18.23;;;1.30;99.90;;;;;;5026236;28;20057;-77
2023/11/25 01:14:42;;;;;;;32.10;18.73;;;1.30;99.90;;;;;;5024021;28;20052;-76
2023/11/25 01:17:10;;;;;;;41.80;18.08;;;1.30;99.90;;;;;;5027191;28;20124;-77
2023/11/25 01:19:37;;;;;;;35.03;19.27;;;1.40;99.90;;;;;;5026377;28;20088;-77
2023/11/25 01:22:04;;;;;;;38.05;18.88;;;1.40;99.90;;;;;;5023904;28;20040;-77
2023/11/25 01:24:32;;;;;;;38.65;17.20;;;1.40;99.90;;;;;;5023260;28;20041;-77
2023/11/25 01:26:59;;;;;;;41.97;20.02;;;1.50;99.90;;;;;;5012893;28;20080;-77
2023/11/25 01:29:26;;;;;;;47.75;20.10;;;1.50;99.90;;;;;;5019246;28;20048;-77
2023/11/25 01:31:53;;;;;;;44.75;18.70;;;1.50;99.90;;;;;;5021869;28;20045;-77
2023/11/25 01:34:22;;;;;;;43.15;19.25;;;1.50;99.90;;;;;;5018085;28;20049;-76
2023/11/25 01:36:49;;;;;;;33.75;17.23;;;1.50;99.90;;;;;;5021258;28;20465;-76
2023/11/25 01:39:16;;;;;;;55.25;18.27;;;1.50;99.90;;;;;;5028828;28;20064;-77
2023/11/25 01:41:43;;;;;;;243.57;36.65;;;1.40;99.90;;;;;;5014409;28;20087;-76
2023/11/25 01:44:13;;;;;;;57.60;17.98;;;1.50;99.90;;;;;;5012974;28;20048;-77
2023/11/25 01:46:42;;;;;;;41.88;19.17;;;1.40;99.90;;;;;;5025754;28;20064;-77
2023/11/25 01:49:15;;;;;;;38.83;18.30;;;1.40;99.90;;;;;;5013769;28;20068;-76
2023/11/25 01:51:45;;;;;;;36.33;20.23;;;1.40;99.90;;;;;;5025272;28;20041;-76
2023/11/25 01:54:14;;;;;;;37.53;18.45;;;1.50;99.90;;;;;;5016112;28;20041;-77
2023/11/25 01:56:46;;;;;;;36.80;17.52;;;1.40;99.90;;;;;;5026293;28;20044;-77
2023/11/25 01:59:15;;;;;;;30.70;17.75;;;1.50;99.90;;;;;;5022127;28;20045;-76
2023/11/25 02:01:43;;;;;;;42.00;19.40;;;1.40;99.90;;;;;;5029019;28;20057;-77
2023/11/25 02:04:11;;;;;;;48.67;20.48;;;1.40;99.90;;;;;;5029430;28;20572;-76
2023/11/25 02:06:37;;;;;;;44.75;20.52;;;1.40;99.90;;;;;;5025713;28;20037;-77
2023/11/25 02:09:04;;;;;;;43.75;20.50;;;1.40;99.90;;;;;;5026622;28;20072;-76
2023/11/25 02:11:32;;;;;;;40.47;21.15;;;1.40;99.90;;;;;;5030930;28;20037;-76
2023/11/25 02:13:58;;;;;;;44.67;20.08;;;1.40;99.90;;;;;;5013785;28;20041;-77
2023/11/25 02:16:25;;;;;;;41.35;20.15;;;1.40;99.90;;;;;;5030033;28;20045;-76
2023/11/25 02:18:53;;;;;;;50.65;19.67;;;1.40;99.90;;;;;;5027747;28;20055;-76
2023/11/25 02:21:19;;;;;;;49.08;20.85;;;1.40;99.90;;;;;;5030786;28;20044;-76
2023/11/25 02:23:47;;;;;;;40.85;19.30;;;1.50;99.90;;;;;;5025442;28;20072;-76
2023/11/25 02:26:14;;;;;;;43.20;21.13;;;1.50;99.90;;;;;;5008775;28;20128;-76
2023/11/25 02:28:41;;;;;;;43.40;20.13;;;1.50;99.90;;;;;;5026086;28;21369;-76
2023/11/25 02:31:09;;;;;;;34.20;17.67;;;1.60;99.90;;;;;;5024351;28;20052;-76
2023/11/25 02:33:36;;;;;;;40.35;18.58;;;1.50;99.90;;;;;;5015130;28;20047;-76
2023/11/25 02:36:03;;;;;;;42.03;18.50;;;1.50;99.90;;;;;;5044334;28;20124;-76
2023/11/25 02:38:30;;;;;;;39.03;18.85;;;1.50;99.90;;;;;;5042981;28;20051;-77
2023/11/25 02:40:57;;;;;;;56.65;19.52;;;1.60;99.90;;;;;;5029961;28;20051;-76
2023/11/25 02:43:24;;;;;;;42.17;18.85;;;1.60;99.90;;;;;;5013931;28;20120;-77
2023/11/25 02:45:52;;;;;;;42.88;19.20;;;1.50;99.90;;;;;;5025438;28;20566;-77
2023/11/25 02:48:19;;;;;;;33.13;18.23;;;1.60;99.90;;;;;;5023099;28;20419;-77
2023/11/25 02:50:47;;;;;;;38.22;19.88;;;1.60;99.90;;;;;;5023435;28;20037;-76
2023/11/25 02:53:14;;;;;;;38.20;18.88;;;1.60;99.90;;;;;;5009014;28;20048;-76
2023/11/25 02:55:42;;;;;;;45.22;19.15;;;1.60;99.90;;;;;;5012534;28;20048;-76
2023/11/25 02:58:11;;;;;;;52.33;20.65;;;1.60;99.90;;;;;;5042254;28;20136;-76
2023/11/25 03:00:40;;;;;;;43.55;20.85;;;1.60;99.90;;;;;;5022536;28;20503;-76
2023/11/25 03:03:12;;;;;;;42.10;18.98;;;1.70;99.90;;;;;;5019570;28;20900;-76
2023/11/25 03:05:42;;;;;;;39.35;18.75;;;1.60;99.90;;;;;;5027796;28;20592;-76
2023/11/25 03:08:16;;;;;;;33.55;17.42;;;1.60;99.90;;;;;;5023719;28;20523;-76
2023/11/25 03:10:46;;;;;;;;;;;1.60;99.90;;;;;;5026270;28;20049;-76
2023/11/25 03:13:14;;;;;;;35.28;17.30;;;1.60;99.90;;;;;;5024864;28;20016;-76
2023/11/25 03:15:42;;;;;;;37.47;18.02;;;1.60;99.90;;;;;;5025277;28;20045;-76
2023/11/25 03:18:09;;;;;;;42.33;20.27;;;1.70;99.90;;;;;;5026018;28;20842;-76
2023/11/25 03:20:38;;;;;;;50.60;19.52;;;1.70;99.90;;;;;;5021134;28;20114;-76
2023/11/25 03:23:06;;;;;;;42.95;20.35;;;1.70;99.90;;;;;;5020896;28;20061;-78
2023/11/25 03:25:33;;;;;;;41.38;19.25;;;1.60;99.90;;;;;;5025142;28;20175;-75
2023/11/25 03:28:10;;;;;;;44.88;19.52;;;1.60;99.90;;;;;;5021702;28;20593;-77
2023/11/25 03:30:38;;;;;;;52.42;19.13;;;1.60;99.90;;;;;;5027157;28;20127;-77
2023/11/25 03:33:05;;;;;;;39.67;18.88;;;1.70;99.90;;;;;;5024019;28;20132;-76
2023/11/25 03:35:33;;;;;;;45.03;18.63;;;1.60;99.90;;;;;;5007964;28;20661;-77
2023/11/25 03:37:59;;;;;;;41.58;18.80;;;1.70;99.90;;;;;;5024367;28;20135;-77
2023/11/25 03:40:26;;;;;;;39.85;18.55;;;1.70;99.90;;;;;;5019465;28;20402;-76
2023/11/25 03:42:54;;;;;;;51.13;20.10;;;1.70;99.90;;;;;;5006713;28;20115;-76
2023/11/25 03:45:21;;;;;;;47.03;19.92;;;1.70;99.90;;;;;;5011589;28;20517;-77
2023/11/25 03:47:50;;;;;;;43.47;18.92;;;1.70;99.90;;;;;;5008994;28;20715;-77
2023/11/25 03:50:17;;;;;;;38.03;18.10;;;1.70;99.90;;;;;;5023812;28;20049;-77
2023/11/25 03:52:45;;;;;;;44.47;18.25;;;1.80;99.90;;;;;;5012813;28;20045;-77
2023/11/25 03:55:12;;;;;;;38.33;17.27;;;1.80;99.90;;;;;;5013451;28;20045;-76
2023/11/25 03:57:39;;;;;;;37.47;19.08;;;1.80;99.90;;;;;;5025490;28;20102;-77
2023/11/25 04:00:14;;;;;;;40.90;16.98;;;1.80;99.90;;;;;;5008183;28;20068;-79
2023/11/25 04:02:46;;;;;;;42.35;17.63;;;1.80;99.90;;;;;;5011738;28;20501;-77
2023/11/25 04:05:14;;;;;;;42.08;18.33;;;1.80;99.90;;;;;;5027885;28;20719;-77
2023/11/25 04:07:41;;;;;;;40.47;17.42;;;1.80;99.90;;;;;;5029862;28;20053;-77
2023/11/25 04:10:12;;;;;;;31.67;14.93;;;1.80;99.90;;;;;;5020319;28;20053;-76
2023/11/25 04:12:45;;;;;;;33.00;16.17;;;1.80;99.90;;;;;;5025843;28;20057;-77
2023/11/25 04:15:15;;;;;;;37.28;15.10;;;1.80;99.90;;;;;;5014072;28;20139;-77
2023/11/25 04:17:42;;;;;;;41.92;15.88;;;1.90;99.90;;;;;;5024696;28;20475;-76
2023/11/25 04:20:23;;;;;;;37.70;16.63;;;1.90;99.90;;;;;;5021866;28;20049;-78
2023/11/25 04:22:51;;;;;;;40.45;16.05;;;1.90;99.90;;;;;;5005424;28;20052;-76
2023/11/25 04:25:18;;;;;;;32.33;14.85;;;1.90;99.90;;;;;;5011578;28;20972;-76
2023/11/25 04:27:48;;;;;;;44.97;15.40;;;1.90;99.90;;;;;;5028169;28;20458;-76
2023/11/25 04:30:18;;;;;;;36.55;14.80;;;1.90;99.90;;;;;;5022407;28;20627;-76
2023/11/25 04:32:47;;;;;;;29.92;14.07;;;1.90;99.90;;;;;;5023042;28;20052;-77
2023/11/25 04:35:15;;;;;;;34.05;15.48;;;1.90;99.90;;;;;;5006693;28;20221;-77
2023/11/25 04:37:45;;;;;;;37.85;14.13;;;1.90;99.90;;;;;;5032825;28;20052;-76
2023/11/25 04:40:12;;;;;;;22.90;12.43;;;1.90;99.90;;;;;;5026960;28;20122;-77
2023/11/25 04:42:41;;;;;;;27.58;12.35;;;1.90;99.90;;;;;;5029205;28;20063;-77
2023/11/25 04:45:15;;;;;;;34.42;14.18;;;1.90;99.90;;;;;;5025396;28;20114;-78
2023/11/25 04:47:47;;;;;;;44.00;17.13;;;1.90;99.90;;;;;;5047304;28;20156;-76
2023/11/25 04:50:15;;;;;;;39.83;16.60;;;1.90;99.90;;;;;;5006833;28;20419;-75
2023/11/25 04:52:43;;;;;;;36.33;18.65;;;1.90;99.90;;;;;;5032121;28;20052;-76
2023/11/25 04:55:14;;;;;;;44.35;20.70;;;1.90;99.90;;;;;;5023174;28;20123;-75
2023/11/25 04:57:42;;;;;;;52.92;22.75;;;2.00;99.90;;;;;;5030483;28;20064;-75
2023/11/25 05:00:10;;;;;;;42.20;20.95;;;2.00;99.90;;;;;;5028601;28;20037;-76
2023/11/25 05:02:38;;;;;;;47.00;26.17;;;2.00;99.90;;;;;;5028488;28;20807;-76
2023/11/25 05:05:07;;;;;;;59.90;28.02;;;2.00;99.90;;;;;;5021788;28;20034;-75
2023/11/25 05:07:34;;;;;;;56.70;28.98;;;2.00;99.90;;;;;;5028513;28;20041;-75
2023/11/25 05:10:03;;;;;;;57.38;30.48;;;2.00;99.90;;;;;;5021297;28;20539;-77
2023/11/25 05:12:30;;;;;;;51.67;27.67;;;2.00;99.90;;;;;;5028904;28;20415;-75
2023/11/25 05:14:57;;;;;;;51.33;26.05;;;2.00;99.90;;;;;;5011281;28;20038;-75
2023/11/25 05:17:25;;;;;;;50.33;28.35;;;2.00;99.90;;;;;;5023782;28;20590;-77
2023/11/25 05:19:52;;;;;;;61.45;27.65;;;2.00;99.90;;;;;;5024589;28;20049;-77
2023/11/25 05:22:20;;;;;;;46.67;21.67;;;2.00;99.90;;;;;;5024694;28;20470;-75
2023/11/25 05:24:47;;;;;;;54.95;28.67;;;2.00;99.90;;;;;;5030431;28;20280;-75
2023/11/25 05:27:14;;;;;;;43.80;24.58;;;2.00;99.90;;;;;;5006317;28;20045;-77
2023/11/25 05:29:41;;;;;;;44.95;25.73;;;2.00;99.90;;;;;;5032697;28;20098;-78
2023/11/25 05:32:08;;;;;;;57.55;28.45;;;2.00;99.90;;;;;;5031068;28;20122;-76
2023/11/25 05:34:36;;;;;;;46.90;29.10;;;2.00;99.90;;;;;;5017355;28;20206;-76
2023/11/25 05:37:03;;;;;;;41.67;23.33;;;2.10;99.90;;;;;;5024417;28;20041;-76
2023/11/25 05:39:30;;;;;;;46.08;25.25;;;2.10;99.90;;;;;;5023810;28;20578;-75
2023/11/25 05:41:57;;;;;;;43.03;25.17;;;2.10;99.90;;;;;;5025725;28;20056;-74
2023/11/25 05:44:25;;;;;;;45.50;23.92;;;2.10;99.90;;;;;;5026903;28;20042;-76
2023/11/25 05:46:56;;;;;;;43.97;25.13;;;2.10;99.90;;;;;;5026456;28;20049;-75
2023/11/25 05:49:23;;;;;;;36.50;18.30;;;2.10;99.90;;;;;;5046886;28;20045;-75
2023/11/25 05:51:51;;;;;;;37.08;22.02;;;2.10;99.90;;;;;;5009681;28;20040;-75
2023/11/25 05:54:18;;;;;;;46.63;23.83;;;2.10;99.90;;;;;;5020687;28;20631;-76
2023/11/25 05:56:48;;;;;;;50.92;23.67;;;2.10;99.90;;;;;;5024393;28;20040;-76
2023/11/25 05:59:18;;;;;;;42.38;21.88;;;2.10;99.90;;;;;;5020061;28;20053;-76
2023/11/25 06:01:45;;;;;;;39.42;22.75;;;2.10;99.90;;;;;;5010526;28;20043;-76
2023/11/25 06:04:12;;;;;;;49.40;21.95;;;2.10;99.90;;;;;;5023096;28;20060;-74
2023/11/25 06:06:42;;;;;;;47.95;23.60;;;2.10;99.90;;;;;;5010497;28;20053;-75
2023/11/25 06:09:11;;;;;;;41.85;20.73;;;2.10;99.90;;;;;;5005840;28;20530;-75
2023/11/25 06:11:39;;;;;;;48.95;22.45;;;2.10;99.90;;;;;;5029302;28;20626;-75
2023/11/25 06:14:06;;;;;;;41.72;21.73;;;2.10;99.90;;;;;;5023784;28;20636;-75
2023/11/25 06:16:34;;;;;;;44.63;18.50;;;2.10;99.90;;;;;;5024728;28;20044;-75
2023/11/25 06:19:04;;;;;;;38.10;16.45;;;2.10;99.90;;;;;;5043947;28;20025;-75
2023/11/25 06:21:31;;;;;;;46.25;20.38;;;2.10;99.90;;;;;;5057273;28;20056;-75
2023/11/25 06:24:00;;;;;;;42.97;18.63;;;2.10;99.90;;;;;;5037254;28;20057;-75
2023/11/25 06:26:27;;;;;;;39.40;19.73;;;2.20;99.90;;;;;;5029726;28;20424;-75
2023/11/25 06:28:55;;;;;;;41.00;18.95;;;2.10;99.90;;;;;;5016042;28;20041;-75
2023/11/25 06:31:21;;;;;;;55.05;20.45;;;2.10;99.90;;;;;;5024646;28;20053;-76
2023/11/25 06:33:49;;;;;;;48.40;20.38;;;2.10;99.90;;;;;;5025738;28;20033;-76
2023/11/25 06:36:16;;;;;;;53.25;19.70;;;2.10;99.90;;;;;;5005828;28;20168;-75
2023/11/25 06:38:43;;;;;;;42.05;19.42;;;2.10;99.90;;;;;;5008429;28;20106;-76
2023/11/25 06:41:11;;;;;;;49.72;21.75;;;2.10;99.90;;;;;;5024002;28;20041;-75
2023/11/25 06:43:40;;;;;;;40.08;17.02;;;2.10;99.90;;;;;;5017749;28;20976;-75
2023/11/25 06:46:08;;;;;;;42.08;21.13;;;2.20;99.90;;;;;;5016495;28;20051;-75
2023/11/25 06:48:35;;;;;;;41.40;19.48;;;2.10;99.90;;;;;;5020385;28;20136;-76
2023/11/25 06:51:02;;;;;;;48.33;20.33;;;2.10;99.90;;;;;;5006033;28;20037;-76
2023/11/25 06:53:29;;;;;;;31.20;15.50;;;2.10;99.90;;;;;;5011981;28;20598;-76
2023/11/25 06:56:08;;;;;;;34.63;15.43;;;2.10;99.90;;;;;;5023380;28;20069;-76
2023/11/25 06:58:35;;;;;;;42.70;16.02;;;2.20;99.90;;;;;;5006269;28;20088;-75
2023/11/25 07:01:04;;;;;;;35.90;14.98;;;2.10;99.90;;;;;;5017776;28;20507;-75
2023/11/25 07:03:31;;;;;;;42.13;14.10;;;2.20;99.90;;;;;;5025569;28;20041;-74
2023/11/25 07:05:58;;;;;;;43.42;16.42;;;2.20;99.90;;;;;;5019237;28;20041;-74
2023/11/25 07:08:25;;;;;;;45.10;16.15;;;2.20;99.90;;;;;;5017846;28;20045;-74
2023/11/25 07:10:55;;;;;;;37.85;14.85;;;2.20;99.90;;;;;;5018877;28;20098;-74
2023/11/25 07:13:24;;;;;;;45.25;14.60;;;2.20;99.90;;;;;;5013862;28;20807;-74
2023/11/25 07:15:50;;;;;;;37.38;13.95;;;2.20;99.90;;;;;;5008064;28;20120;-73
2023/11/25 07:18:18;;;;;;;38.45;14.50;;;2.20;99.90;;;;;;5009015;28;20042;-77
2023/11/25 07:20:46;;;;;;;39.38;14.63;;;2.30;99.90;;;;;;5021785;28;20061;-76
2023/11/25 07:23:14;;;;;;;28.88;13.15;;;2.20;99.90;;;;;;5023965;28;20045;-74
2023/11/25 07:25:45;;;;;;;40.40;15.50;;;2.20;99.90;;;;;;5023988;28;20760;-74
2023/11/25 07:28:13;;;;;;;28.15;13.70;;;2.20;99.90;;;;;;5018875;28;20041;-74
2023/11/25 07:30:41;;;;;;;31.77;11.05;;;2.30;99.90;;;;;;5021080;28;20037;-74
2023/11/25 07:33:09;;;;;;;36.38;10.93;;;2.30;99.90;;;;;;5017716;28;20484;-74
2023/11/25 07:35:40;;;;;;;39.80;12.27;;;2.30;99.90;;;;;;5019857;28;20041;-74
2023/11/25 07:38:07;;;;;;;25.77;9.93;;;2.40;99.90;;;;;;5007636;28;20056;-74
2023/11/25 07:40:34;;;;;;;25.23;10.38;;;2.40;99.90;;;;;;5022731;28;20037;-75
2023/11/25 07:43:04;;;;;;;36.03;12.13;;;2.30;99.90;;;;;;5007687;28;20104;-74
2023/11/25 07:45:32;;;;;;;33.92;11.18;;;2.40;99.90;;;;;;5026267;28;20465;-74
2023/11/25 07:47:58;;;;;;;26.80;10.55;;;2.30;99.90;;;;;;5025112;28;20091;-72
2023/11/25 07:50:35;;;;;;;65.13;15.20;;;2.40;99.90;;;;;;5011085;28;20124;-72
2023/11/25 07:53:02;;;;;;;36.88;10.95;;;2.40;99.90;;;;;;5028424;28;20041;-73
2023/11/25 07:55:29;;;;;;;45.15;11.95;;;2.40;99.90;;;;;;5003340;28;20071;-73
2023/11/25 07:57:58;;;;;;;35.05;10.52;;;2.40;99.90;;;;;;5028538;28;20076;-73
2023/11/25 08:00:25;;;;;;;36.45;12.43;;;2.40;99.90;;;;;;5023994;28;20821;-74
2023/11/25 08:02:55;;;;;;;33.85;9.55;;;2.40;99.90;;;;;;5031301;28;20045;-74
2023/11/25 08:05:23;;;;;;;35.95;11.45;;;2.30;99.90;;;;;;5008085;28;20137;-74
2023/11/25 08:07:51;;;;;;;35.35;11.90;;;2.30;99.90;;;;;;5029972;28;20072;-74
2023/11/25 08:10:20;;;;;;;34.40;11.10;;;2.30;99.90;;;;;;5028210;28;20037;-73
2023/11/25 08:12:47;;;;;;;32.45;13.27;;;2.30;99.90;;;;;;5031572;28;20071;-75
2023/11/25 08:15:14;;;;;;;23.50;12.27;;;2.10;99.90;;;;;;5022326;28;20444;-74
2023/11/25 08:17:42;;;;;;;34.80;13.27;;;2.00;99.90;;;;;;5025397;28;20386;-75
2023/11/25 08:20:17;;;;;;;24.13;13.60;;;2.00;99.90;;;;;;5013771;28;20554;-75
2023/11/25 08:22:44;;;;;;;30.50;13.68;;;1.90;99.90;;;;;;5032142;28;20045;-75
2023/11/25 08:25:16;;;;;;;25.20;14.32;;;1.80;99.90;;;;;;5031409;28;20040;-74
2023/11/25 08:27:46;;;;;;;31.85;16.05;;;1.70;99.90;;;;;;5018836;28;20098;-76
2023/11/25 08:30:13;;;;;;;37.53;15.25;;;1.70;99.90;;;;;;5016564;28;20142;-75
2023/11/25 08:32:52;;;;;;;24.27;14.38;;;1.70;99.90;;;;;;5023093;28;20049;-75
2023/11/25 08:35:19;;;;;;;27.35;15.30;;;1.70;99.90;;;;;;5033814;28;20041;-76
2023/11/25 08:37:47;;;;;;;22.67;13.82;;;1.80;99.90;;;;;;5018896;28;20055;-76
2023/11/25 08:40:21;;;;;;;17.55;12.80;;;1.70;99.90;;;;;;5027664;28;20117;-76
2023/11/25 08:42:49;;;;;;;22.15;13.70;;;1.70;99.90;;;;;;5023868;28;20907;-75
2023/11/25 08:45:16;;;;;;;20.45;12.38;;;1.60;99.90;;;;;;5027179;28;20045;-75
2023/11/25 08:47:44;;;;;;;18.17;12.00;;;1.60;99.90;;;;;;5034760;28;20072;-76
2023/11/25 08:50:15;;;;;;;23.88;10.85;;;1.60;99.90;;;;;;5026053;28;20095;-76
2023/11/25 08:52:44;;;;;;;16.00;12.02;;;1.60;99.90;;;;;;5019869;28;20055;-76
2023/11/25 08:55:17;;;;;;;19.58;12.80;;;1.60;99.90;;;;;;5017786;28;20717;-75
2023/11/25 08:57:44;;;;;;;23.48;13.57;;;1.60;99.90;;;;;;5030026;28;20781;-75
2023/11/25 09:00:14;;;;;;;27.20;14.20;;;1.50;99.90;;;;;;5027276;28;20034;-76
2023/11/25 09:02:43;;;;;;;30.50;18.35;;;1.60;99.90;;;;;;5011754;28;20052;-77
2023/11/25 09:05:11;;;;;;;39.85;17.73;;;1.60;99.90;;;;;;5013955;28;20051;-77
2023/11/25 09:07:38;;;;;;;26.77;16.63;;;1.60;99.90;;;;;;5019949;28;20076;-76
2023/11/25 09:10:07;;;;;;;30.67;16.13;;;1.60;99.90;;;;;;5038211;28;20125;-78
2023/11/25 09:12:34;;;;;;;24.20;13.05;;;1.50;99.90;;;;;;5014191;28;20042;-77
2023/11/25 09:15:04;;;;;;;27.58;13.50;;;1.50;99.90;;;;;;5030192;28;20056;-78
2023/11/25 09:17:38;;;;;;;26.10;12.02;;;1.50;99.90;;;;;;5028854;28;20894;-77
2023/11/25 09:20:16;;;;;;;28.08;14.02;;;1.60;99.90;;;;;;5039500;28;20044;-77
2023/11/25 09:22:44;;;;;;;41.70;17.45;;;1.60;99.90;;;;;;5013848;28;20111;-77
2023/11/25 09:25:12;;;;;;;39.13;16.30;;;1.70;99.90;;;;;;5012427;28;20064;-77
2023/11/25 09:27:40;;;;;;;38.60;13.45;;;1.80;99.90;;;;;;5031164;28;20124;-75
2023/11/25 09:30:11;;;;;;;39.97;14.77;;;1.90;99.90;;;;;;5052125;28;20048;-76
2023/11/25 09:32:41;;;;;;;35.78;16.48;;;1.90;99.90;;;;;;5032369;28;20659;-75
2023/11/25 09:35:10;;;;;;;26.38;14.27;;;2.00;99.90;;;;;;5034448;28;20052;-76
2023/11/25 09:37:39;;;;;;;25.70;12.77;;;2.00;99.90;;;;;;5037700;28;20083;-77
2023/11/25 09:40:14;;;;;;;22.98;11.70;;;2.10;99.90;;;;;;5038437;28;20123;-79
2023/11/25 09:42:46;;;;;;;29.45;13.63;;;2.10;99.90;;;;;;5030653;28;20223;-77
2023/11/25 09:45:46;;;;;;;34.85;14.52;;;2.20;99.90;;;;;;5032100;28;20067;-75
2023/11/25 09:48:45;;;;;;;22.15;11.57;;;2.20;99.90;;;;;;5028325;28;20049;-76
2023/11/25 09:52:23;;;;;;;14.55;10.07;;;2.30;99.90;;;;;;5048116;28;20060;-76
2023/11/25 09:54:58;;;;;;;20.67;10.57;;;2.40;99.90;;;;;;5033637;28;20114;-75
2023/11/25 09:57:32;;;;;;;29.35;13.80;;;2.40;99.90;;;;;;5033721;28;20045;-75
2023/11/25 10:00:27;;;;;;;21.40;11.02;;;2.40;99.90;;;;;;5039437;28;20098;-76
2023/11/25 10:02:57;;;;;;;29.23;13.27;;;2.50;99.90;;;;;;5067342;28;20071;-75
2023/11/25 10:05:26;;;;;;;25.30;13.55;;;2.50;99.90;;;;;;5044950;28;20022;-76
2023/11/25 10:07:55;;;;;;;29.92;14.88;;;2.60;99.90;;;;;;5036824;28;20470;-77
2023/11/25 10:10:26;;;;;;;27.58;13.77;;;2.60;99.90;;;;;;5031423;28;20105;-76
2023/11/25 10:12:52;;;;;;;26.02;12.48;;;2.60;99.90;;;;;;5039656;28;20105;-77
2023/11/25 10:15:24;;;;;;;17.20;9.95;;;2.70;99.90;;;;;;5017091;28;20492;-75
2023/11/25 10:17:54;;;;;;;33.67;11.88;;;2.70;99.90;;;;;;5043903;28;20069;-75
2023/11/25 10:20:22;;;;;;;20.67;10.63;;;2.70;99.90;;;;;;5013344;28;20052;-75
2023/11/25 10:22:56;;;;;;;24.85;13.07;;;2.80;99.90;;;;;;5028611;28;20645;-75
2023/11/25 10:25:26;;;;;;;18.52;9.55;;;2.80;99.90;;;;;;5023636;28;20045;-75
2023/11/25 10:27:58;;;;;;;19.80;10.43;;;2.80;99.90;;;;;;5003835;28;20136;-74
2023/11/25 10:30:26;;;;;;;16.45;9.25;;;2.80;99.90;;;;;;5023732;28;20041;-75
2023/11/25 10:32:54;;;;;;;24.77;9.38;;;2.90;99.90;;;;;;5014272;28;20144;-74
2023/11/25 10:35:24;;;;;;;18.50;9.02;;;2.90;99.90;;;;;;5023327;28;20103;-74
2023/11/25 10:37:51;;;;;;;17.02;10.93;;;2.90;99.90;;;;;;5027068;28;20049;-74
2023/11/25 10:40:27;;;;;;;28.67;11.73;;;3.00;99.90;;;;;;5019927;28;20041;-74
2023/11/25 10:42:54;;;;;;;15.82;10.75;;;3.00;99.90;;;;;;5002639;28;20045;-74
2023/11/25 10:45:27;;;;;;;14.55;7.72;;;3.00;99.90;;;;;;5016066;28;20053;-74
2023/11/25 10:47:55;;;;;;;15.77;8.50;;;3.00;99.90;;;;;;5026937;28;20044;-74
2023/11/25 10:50:25;;;;;;;16.15;8.98;;;3.00;99.90;;;;;;5027031;28;20048;-74
2023/11/25 10:52:57;;;;;;;9.75;7.60;;;3.10;99.90;;;;;;5025378;28;20067;-74
2023/11/25 10:55:37;;;;;;;15.13;6.90;;;3.20;99.90;;;;;;5007582;28;20041;-74
2023/11/25 10:58:07;;;;;;;17.67;9.00;;;3.10;99.90;;;;;;5021824;28;20037;-74
2023/11/25 11:00:34;;;;;;;16.23;7.93;;;3.20;99.90;;;;;;5022348;28;20060;-75
2023/11/25 11:03:05;;;;;;;16.95;8.48;;;3.10;99.90;;;;;;5024674;28;20491;-73
2023/11/25 11:05:39;;;;;;;13.07;7.70;;;3.20;99.90;;;;;;5022586;28;20199;-74
2023/11/25 11:08:24;;;;;;;14.15;7.50;;;3.10;99.90;;;;;;5008283;28;20705;-74
2023/11/25 11:11:11;;;;;;;9.60;6.43;;;3.10;99.90;;;;;;5038130;28;20049;-74
2023/11/25 11:14:06;;;;;;;18.75;8.10;;;3.10;99.90;;;;;;5023702;28;20053;-75
2023/11/25 11:17:04;;;;;;;10.10;5.82;;;3.10;99.90;;;;;;5005664;28;20053;-74
2023/11/25 11:19:43;;;;;;;9.38;5.70;;;3.00;99.90;;;;;;4996149;28;20045;-75
2023/11/25 11:22:11;;;;;;;8.77;6.05;;;2.90;99.90;;;;;;5008522;28;20045;-74
2023/11/25 11:25:04;;;;;;;11.15;6.82;;;2.90;99.90;;;;;;5040943;28;20057;-74
2023/11/25 11:27:34;;;;;;;12.40;7.03;;;3.00;99.90;;;;;;5006070;28;20041;-75
2023/11/25 11:30:18;;;;;;;17.70;9.20;;;3.00;99.90;;;;;;5043391;28;20506;-74
2023/11/25 11:32:47;;;;;;;18.02;9.70;;;3.00;99.90;;;;;;5023705;28;20419;-74
2023/11/25 11:35:14;;;;;;;12.82;9.73;;;3.10;99.90;;;;;;5027774;28;20479;-74
2023/11/25 11:37:48;;;;;;;19.77;9.55;;;3.10;99.90;;;;;;5024945;28;20045;-73
2023/11/25 11:40:22;;;;;;;17.52;10.32;;;3.20;99.90;;;;;;5019899;28;20046;-74
2023/11/25 11:42:50;;;;;;;18.95;8.98;;;3.30;99.90;;;;;;5033876;28;20034;-74
2023/11/25 11:45:22;;;;;;;19.90;11.15;;;3.40;99.90;;;;;;5033595;28;20123;-74
2023/11/25 11:48:09;;;;;;;18.50;10.00;;;3.40;99.90;;;;;;5028032;28;20076;-74
2023/11/25 11:50:38;;;;;;;23.75;10.55;;;3.40;99.90;;;;;;5026987;28;20063;-74
2023/11/25 11:53:07;;;;;;;24.92;12.88;;;3.50;99.90;;;;;;5026567;28;21063;-74
2023/11/25 11:55:59;;;;;;;23.58;10.73;;;3.50;99.90;;;;;;5017439;28;20072;-74
2023/11/25 11:58:34;;;;;;;22.02;10.38;;;3.50;99.90;;;;;;5015922;28;20142;-75
2023/11/25 12:01:05;;;;;;;22.70;9.73;;;3.50;99.90;;;;;;5011956;28;20076;-74
2023/11/25 12:03:33;;;;;;;19.35;10.13;;;3.50;99.90;;;;;;5021796;28;20300;-74
2023/11/25 12:06:01;;;;;;;20.70;11.02;;;3.60;99.90;;;;;;5020994;28;20055;-73
2023/11/25 12:08:34;;;;;;;22.85;10.65;;;3.50;99.90;;;;;;5022742;28;20042;-74
2023/11/25 12:11:04;;;;;;;11.90;7.93;;;3.60;99.90;;;;;;5027440;28;20715;-73
2023/11/25 12:13:37;;;;;;;14.05;9.25;;;3.50;99.90;;;;;;5029711;28;20037;-73
2023/11/25 12:16:12;;;;;;;16.52;9.13;;;3.50;99.90;;;;;;5023519;28;20134;-74
2023/11/25 12:18:44;;;;;;;27.63;12.85;;;3.50;99.90;;;;;;5025304;28;20128;-74
2023/11/25 12:21:12;;;;;;;16.05;8.93;;;3.50;99.90;;;;;;5028790;28;20591;-75
2023/11/25 12:23:38;;;;;;;19.33;8.50;;;3.60;99.90;;;;;;5026079;28;20194;-73
2023/11/25 12:26:24;;;;;;;18.08;9.50;;;3.60;99.90;;;;;;5021737;28;20557;-74
2023/11/25 12:29:00;;;;;;;25.67;10.93;;;3.60;99.90;;;;;;5023403;28;20053;-75
2023/11/25 12:31:32;;;;;;;22.13;10.95;;;3.60;99.90;;;;;;5024339;28;20645;-73
2023/11/25 12:34:02;;;;;;;22.95;11.07;;;3.70;99.90;;;;;;5023218;28;20606;-72
2023/11/25 12:36:29;;;;;;;19.60;11.68;;;3.70;99.90;;;;;;5007084;28;20047;-75
2023/11/25 12:39:11;;;;;;;23.77;12.35;;;3.60;99.90;;;;;;5029592;28;20045;-74
2023/11/25 12:41:49;;;;;;;26.98;10.73;;;3.70;99.90;;;;;;5023164;28;20033;-72
2023/11/25 12:44:24;;;;;;;23.88;10.90;;;3.70;99.90;;;;;;5014457;28;20056;-74
2023/11/25 12:47:08;;;;;;;24.88;11.52;;;3.80;99.90;;;;;;5011298;28;20117;-76
2023/11/25 12:49:37;;;;;;;26.35;11.15;;;3.70;99.90;;;;;;5024693;28;20047;-75
2023/11/25 12:52:23;;;;;;;22.92;13.65;;;3.80;99.90;;;;;;5009495;28;20419;-75